Time;durP1;ratioP1;P1;durP2;ratioP2;P2;SDS_P1;SDS_P2;PMS_P1;PMS_P2;Temp;Humidity;BMP_temperature;BMP_pressure;BME280_temperature;BME280_humidity;BME280_pressure;Samples;Min_cycle;Max_cycle;Signal;HPM_P1;HPM_P2
2021/05/10 00:00:37;;;;;;;4.80;3.30;;;;;;;20.30;59.72;98647.34;2060572;28;20026;-64
2021/05/10 00:01:37;;;;;;;5.57;3.33;;;;;;;20.30;59.68;98641.03;2062923;28;20026;-64
2021/05/10 00:02:38;;;;;;;4.50;3.03;;;;;;;20.31;59.94;98648.22;2061412;28;20027;-64
2021/05/10 00:03:39;;;;;;;5.07;3.13;;;;;;;20.31;59.77;98659.19;2062314;28;20022;-64
2021/05/10 00:04:39;;;;;;;4.33;3.17;;;;;;;20.31;59.78;98667.38;2051717;28;20030;-64
2021/05/10 00:05:40;;;;;;;4.27;3.27;;;;;;;20.31;59.88;98679.16;2045436;29;20554;-64
2021/05/10 00:06:40;;;;;;;6.23;3.70;;;;;;;20.30;59.79;98688.41;2054124;28;20019;-64
2021/05/10 00:07:42;;;;;;;4.27;2.93;;;;;;;20.32;59.91;98696.44;2063285;28;20385;-64
2021/05/10 00:08:43;;;;;;;7.05;3.90;;;;;;;20.31;59.70;98708.44;2061366;28;20129;-64
2021/05/10 00:09:44;;;;;;;5.38;3.72;;;;;;;20.31;59.88;98713.91;2063502;28;20030;-64
2021/05/10 00:10:44;;;;;;;4.75;3.00;;;;;;;20.30;59.80;98707.56;2059642;28;20781;-65
2021/05/10 00:11:45;;;;;;;5.10;3.17;;;;;;;20.30;59.83;98702.09;2063189;28;20586;-64
2021/05/10 00:12:46;;;;;;;5.47;3.37;;;;;;;20.31;59.85;98706.53;2057104;28;20058;-65
2021/05/10 00:13:49;;;;;;;6.93;3.22;;;;;;;20.30;59.92;98704.81;2057319;28;20022;-65
2021/05/10 00:14:50;;;;;;;4.80;3.10;;;;;;;20.30;59.92;98712.19;2063262;28;20560;-65
2021/05/10 00:15:50;;;;;;;4.97;4.03;;;;;;;20.29;59.88;98715.97;2061557;28;20469;-64
2021/05/10 00:16:50;;;;;;;5.33;3.40;;;;;;;20.30;59.85;98728.59;2054324;28;20121;-65
2021/05/10 00:17:51;;;;;;;5.03;3.37;;;;;;;20.30;59.76;98723.13;2054229;28;20075;-65
2021/05/10 00:18:52;;;;;;;5.77;3.77;;;;;;;20.29;59.84;98727.75;2063018;28;20046;-64
2021/05/10 00:19:52;;;;;;;4.20;2.97;;;;;;;20.29;59.84;98730.50;2062923;28;20133;-64
2021/05/10 00:20:53;;;;;;;4.00;3.23;;;;;;;20.30;59.79;98728.59;2062379;28;20030;-65
2021/05/10 00:21:53;;;;;;;4.93;2.90;;;;;;;20.29;59.96;98726.91;2062142;28;20028;-64
2021/05/10 00:22:53;;;;;;;6.33;3.07;;;;;;;20.28;59.79;98720.56;2062193;28;20027;-65
2021/05/10 00:23:54;;;;;;;5.33;3.40;;;;;;;20.29;59.77;98718.72;2062840;28;20097;-65
2021/05/10 00:24:54;;;;;;;5.83;3.53;;;;;;;20.28;59.92;98719.72;2062767;28;20072;-64
2021/05/10 00:25:55;;;;;;;4.57;3.33;;;;;;;20.28;59.94;98708.78;2062181;28;20077;-64
2021/05/10 00:26:55;;;;;;;5.07;3.00;;;;;;;20.28;59.90;98714.25;2062801;28;20041;-64
2021/05/10 00:27:56;;;;;;;4.77;3.53;;;;;;;20.27;59.98;98707.09;2061654;28;20024;-64
2021/05/10 00:28:56;;;;;;;3.70;3.00;;;;;;;20.28;59.80;98715.09;2060678;28;20609;-65
2021/05/10 00:29:57;;;;;;;5.33;3.67;;;;;;;20.28;59.95;98715.09;2062331;28;20106;-64
2021/05/10 00:30:57;;;;;;;4.60;3.50;;;;;;;20.28;59.90;98714.25;2062172;28;20030;-64
2021/05/10 00:32:01;;;;;;;4.87;3.17;;;;;;;20.27;59.95;98718.03;2063282;28;20494;-64
2021/05/10 00:33:03;;;;;;;3.70;2.90;;;;;;;20.28;59.90;98725.19;2062305;28;20060;-65
2021/05/10 00:34:03;;;;;;;4.70;3.03;;;;;;;20.28;59.97;98730.69;2059302;28;20031;-64
2021/05/10 00:35:04;;;;;;;4.93;3.17;;;;;;;20.28;59.95;98730.69;2059684;28;20129;-64
2021/05/10 00:36:05;;;;;;;4.13;2.93;;;;;;;20.29;59.96;98737.88;2059403;28;20402;-64
2021/05/10 00:37:05;;;;;;;5.97;3.80;;;;;;;20.28;59.87;98741.63;2062610;28;20540;-65
2021/05/10 00:38:06;;;;;;;5.73;3.20;;;;;;;20.28;59.89;98730.69;2059845;28;20152;-65
2021/05/10 00:39:06;;;;;;;4.77;3.10;;;;;;;20.27;59.68;98729.84;2058772;28;20102;-65
2021/05/10 00:40:09;;;;;;;5.00;3.70;;;;;;;20.27;59.83;98712.56;2056494;28;20030;-65
2021/05/10 00:41:09;;;;;;;5.50;3.17;;;;;;;20.26;59.80;98706.25;2061075;28;20022;-64
2021/05/10 00:42:09;;;;;;;4.43;2.93;;;;;;;20.26;59.99;98708.13;2060940;28;20049;-64
2021/05/10 00:43:10;;;;;;;4.73;3.40;;;;;;;20.26;59.84;98708.13;2062191;28;20018;-64
2021/05/10 00:44:11;;;;;;;4.27;3.10;;;;;;;20.26;59.95;98711.72;2063178;28;20056;-64
2021/05/10 00:45:12;;;;;;;5.37;3.47;;;;;;;20.26;60.00;98722.69;2056688;28;20027;-65
2021/05/10 00:46:13;;;;;;;3.90;2.88;;;;;;;20.27;59.92;98729.00;2056121;28;20708;-64
2021/05/10 00:47:13;;;;;;;4.80;3.57;;;;;;;20.26;60.00;98722.69;2062526;28;20806;-64
2021/05/10 00:48:14;;;;;;;4.57;3.37;;;;;;;20.27;59.86;98729.00;2062343;28;20569;-65
2021/05/10 00:49:14;;;;;;;4.23;2.70;;;;;;;20.25;59.99;98720.97;2054341;28;20026;-64
2021/05/10 00:50:16;;;;;;;6.73;3.27;;;;;;;20.26;59.97;98724.53;2052556;28;20027;-65
2021/05/10 00:51:17;;;;;;;4.93;3.10;;;;;;;20.26;59.80;98728.16;2062055;28;20053;-65
2021/05/10 00:52:18;;;;;;;3.78;2.92;;;;;;;20.25;59.75;98731.91;2060620;28;20435;-65
2021/05/10 00:53:19;;;;;;;4.13;2.73;;;;;;;20.26;59.84;98732.75;2061656;28;20072;-64
2021/05/10 00:54:19;;;;;;;5.83;3.60;;;;;;;20.25;59.85;98720.13;2063172;28;20031;-64
2021/05/10 00:55:20;;;;;;;3.77;3.13;;;;;;;20.26;59.80;98728.16;2062111;28;20022;-64
2021/05/10 00:56:21;;;;;;;5.05;3.45;;;;;;;20.25;60.01;98714.66;2062847;28;20391;-64
2021/05/10 00:57:22;;;;;;;5.90;3.50;;;;;;;20.25;59.95;98722.84;2062083;28;20271;-65
2021/05/10 00:58:24;;;;;;;3.60;3.00;;;;;;;20.25;59.99;98720.13;2061496;28;20508;-64
2021/05/10 00:59:24;;;;;;;;;;;;;;;20.20;60.06;98723.44;2055440;28;20839;-64
2021/05/10 01:00:25;;;;;;;4.85;2.85;;;;;;;20.22;60.01;98728.72;2058914;28;19918;-64
2021/05/10 01:01:25;;;;;;;5.67;3.00;;;;;;;20.22;59.95;98720.50;2062791;28;20034;-64
2021/05/10 01:02:26;;;;;;;3.77;2.90;;;;;;;20.23;60.01;98716.72;2061688;28;20041;-65
2021/05/10 01:03:27;;;;;;;4.73;3.10;;;;;;;20.23;60.03;98722.19;2062662;28;20108;-64
2021/05/10 01:04:27;;;;;;;4.15;2.58;;;;;;;20.24;60.07;98723.91;2054120;28;20077;-64
2021/05/10 01:05:28;;;;;;;6.20;3.10;;;;;;;20.23;60.04;98724.94;2052735;28;20155;-65
2021/05/10 01:06:28;;;;;;;4.07;3.27;;;;;;;20.25;59.93;98736.53;2055066;28;20525;-64
2021/05/10 01:07:29;;;;;;;5.63;3.30;;;;;;;20.23;59.92;98727.66;2060208;28;20029;-64
2021/05/10 01:08:29;;;;;;;7.00;3.00;;;;;;;20.24;60.02;98732.13;2060619;28;20077;-64
2021/05/10 01:09:30;;;;;;;4.83;3.07;;;;;;;20.24;60.04;98743.06;2062435;28;20077;-64
2021/05/10 01:10:30;;;;;;;4.50;3.00;;;;;;;20.23;59.94;98728.50;2061775;28;20018;-65
2021/05/10 01:11:31;;;;;;;5.63;2.97;;;;;;;20.24;60.06;98734.84;2062972;28;20477;-65
2021/05/10 01:12:31;;;;;;;3.40;2.80;;;;;;;20.23;59.96;98738.63;2062050;28;20049;-64
2021/05/10 01:13:32;;;;;;;5.67;3.23;;;;;;;20.23;59.88;98735.88;2061674;28;20026;-65
2021/05/10 01:14:34;;;;;;;4.23;2.77;;;;;;;20.23;59.87;98749.56;2062139;28;20561;-64
2021/05/10 01:15:34;;;;;;;4.38;2.97;;;;;;;20.23;60.00;98744.94;2061083;28;20053;-65
2021/05/10 01:16:35;;;;;;;4.33;2.83;;;;;;;20.24;59.86;98751.28;2062460;28;20069;-63
2021/05/10 01:17:37;;;;;;;5.63;3.40;;;;;;;20.24;59.93;98751.28;2061819;28;20084;-63
2021/05/10 01:18:37;;;;;;;4.75;2.97;;;;;;;20.23;59.84;98761.34;2059502;28;20109;-64
2021/05/10 01:19:38;;;;;;;4.67;2.83;;;;;;;20.23;59.94;98755.03;2062157;28;20030;-64
2021/05/10 01:20:40;;;;;;;4.37;3.73;;;;;;;20.24;60.04;98762.22;2061114;28;20433;-63
2021/05/10 01:21:44;;;;;;;5.82;3.10;;;;;;;20.23;59.96;98765.97;2062569;28;20582;-63
2021/05/10 01:22:50;;;;;;;3.42;2.50;;;;;;;20.22;59.94;98776.06;2061591;28;20101;-63
2021/05/10 01:23:51;;;;;;;3.80;2.95;;;;;;;20.24;60.06;98764.94;2062006;28;20030;-64
2021/05/10 01:24:51;;;;;;;6.13;3.37;;;;;;;20.23;60.13;98766.81;2062144;28;20049;-64
2021/05/10 01:25:52;;;;;;;5.17;3.57;;;;;;;20.24;59.90;98767.69;2058185;28;20018;-64
2021/05/10 01:26:53;;;;;;;5.90;2.80;;;;;;;20.23;59.96;98771.44;2059889;28;20026;-64
2021/05/10 01:27:56;;;;;;;4.93;3.25;;;;;;;20.23;60.05;98771.44;2060678;28;20041;-64
2021/05/10 01:28:56;;;;;;;4.35;2.72;;;;;;;20.24;60.03;98778.63;2061710;28;20022;-63
2021/05/10 01:29:57;;;;;;;4.83;3.40;;;;;;;20.23;60.04;98771.44;2061016;28;20027;-63
2021/05/10 01:30:57;;;;;;;4.47;3.10;;;;;;;20.23;60.05;98776.91;2060856;28;20524;-63
2021/05/10 01:31:58;;;;;;;3.73;3.10;;;;;;;20.23;59.74;98771.44;2061314;28;20431;-64
2021/05/10 01:32:59;;;;;;;4.40;3.10;;;;;;;20.24;59.91;98778.63;2060899;28;20100;-64
2021/05/10 01:34:00;;;;;;;4.65;2.95;;;;;;;20.23;59.80;98774.19;2057589;28;20092;-65
2021/05/10 01:35:01;;;;;;;4.77;3.37;;;;;;;20.23;59.96;98772.28;2059473;28;20113;-64
2021/05/10 01:36:02;;;;;;;7.30;3.17;;;;;;;20.22;59.99;98770.59;2059283;28;20034;-65
2021/05/10 01:37:02;;;;;;;4.20;3.13;;;;;;;20.23;60.08;98779.66;2061020;28;20105;-64
2021/05/10 01:38:04;;;;;;;4.07;2.57;;;;;;;20.21;59.96;98785.34;2060942;28;20089;-64
2021/05/10 01:39:05;;;;;;;3.65;3.05;;;;;;;20.23;60.01;98782.38;2060954;28;20038;-64
2021/05/10 01:40:07;;;;;;;4.93;2.85;;;;;;;20.22;60.03;98777.97;2062275;28;20033;-65
2021/05/10 01:41:08;;;;;;;3.88;2.67;;;;;;;20.21;60.00;98781.72;2062105;28;20469;-65
2021/05/10 01:42:08;;;;;;;6.00;3.10;;;;;;;20.21;59.93;98779.00;2061602;28;20027;-64
2021/05/10 01:43:11;;;;;;;7.33;3.47;;;;;;;20.21;59.92;98779.88;2058988;28;20065;-65
2021/05/10 01:44:12;;;;;;;4.13;2.78;;;;;;;20.23;60.03;98790.59;2055407;28;20768;-64
2021/05/10 01:45:13;;;;;;;4.97;2.93;;;;;;;20.23;59.95;98790.59;2061795;28;20033;-65
2021/05/10 01:46:13;;;;;;;6.38;3.80;;;;;;;20.22;60.05;98786.19;2059963;28;20571;-64
2021/05/10 01:47:14;;;;;;;4.53;3.03;;;;;;;20.22;60.04;98789.75;2062176;28;20540;-65
2021/05/10 01:48:15;;;;;;;4.53;2.97;;;;;;;20.20;60.02;98783.63;2053776;28;20093;-65
2021/05/10 01:49:15;;;;;;;3.67;2.70;;;;;;;20.21;60.03;98787.19;2053340;28;20037;-64
2021/05/10 01:50:18;;;;;;;3.27;2.73;;;;;;;20.22;60.08;98791.66;2061095;28;20030;-64
2021/05/10 01:51:26;;;;;;;5.50;3.63;;;;;;;20.21;59.87;98784.47;2062352;28;20096;-65
2021/05/10 01:52:26;;;;;;;4.75;3.03;;;;;;;20.20;59.93;98794.56;2062012;28;20057;-65
2021/05/10 01:53:27;;;;;;;4.17;2.90;;;;;;;20.21;60.02;98789.94;2059761;28;20030;-64
2021/05/10 01:54:28;;;;;;;3.93;2.70;;;;;;;20.21;60.05;98787.19;2061676;28;20027;-64
2021/05/10 01:55:28;;;;;;;4.47;3.20;;;;;;;20.21;59.98;98790.81;2061249;28;20085;-64
2021/05/10 01:56:29;;;;;;;5.13;3.30;;;;;;;20.20;60.03;98793.72;2061978;28;20030;-65
2021/05/10 01:57:29;;;;;;;5.67;2.90;;;;;;;20.21;60.05;98789.94;2061867;28;20050;-65
2021/05/10 01:58:29;;;;;;;4.37;2.63;;;;;;;20.20;60.05;98797.28;2058794;28;20740;-64
2021/05/10 01:59:31;;;;;;;3.25;2.47;;;;;;;20.19;60.08;98797.50;2062400;28;20502;-65
2021/05/10 02:00:35;;;;;;;3.30;2.63;;;;;;;20.20;60.05;98799.19;2060590;28;20183;-65
2021/05/10 02:01:36;;;;;;;5.80;2.97;;;;;;;20.20;60.24;98804.66;2052651;28;20040;-64
2021/05/10 02:02:38;;;;;;;3.65;2.67;;;;;;;20.20;60.02;98807.41;2052822;28;20066;-64
2021/05/10 02:03:38;;;;;;;6.45;3.00;;;;;;;20.20;60.10;98804.66;2065123;28;20034;-64
2021/05/10 02:05:13;;;;;;;5.60;2.90;;;;;;;20.18;60.06;98813.03;2062469;28;20046;-65
2021/05/10 02:06:13;;;;;;;5.07;2.78;;;;;;;20.17;60.12;98822.31;2052133;28;20034;-64
2021/05/10 02:07:14;;;;;;;4.33;2.80;;;;;;;20.18;60.08;98818.53;2058997;28;20030;-65
2021/05/10 02:08:15;;;;;;;4.03;3.00;;;;;;;20.18;60.15;98820.41;2061955;28;20030;-64
2021/05/10 02:09:23;;;;;;;4.13;2.55;;;;;;;20.16;60.11;98815.13;2062182;28;20018;-65
2021/05/10 02:10:28;;;;;;;5.13;3.15;;;;;;;20.19;60.04;98813.91;2060328;28;20126;-65
2021/05/10 02:11:28;;;;;;;3.72;2.72;;;;;;;20.17;60.21;98796.84;2062114;28;20087;-65
2021/05/10 02:12:31;;;;;;;4.87;2.90;;;;;;;20.18;60.13;98801.25;2061323;28;20200;-65
2021/05/10 02:13:32;;;;;;;3.42;2.50;;;;;;;20.17;60.10;98807.78;2061678;28;20048;-65
2021/05/10 02:14:32;;;;;;;4.00;2.80;;;;;;;20.17;60.03;98805.06;2062427;28;20034;-65
2021/05/10 02:15:36;;;;;;;4.27;3.10;;;;;;;20.19;60.22;98813.91;2061818;28;20060;-65
2021/05/10 02:16:37;;;;;;;5.25;3.45;;;;;;;20.19;60.08;98830.34;2061543;28;20088;-65
2021/05/10 02:17:38;;;;;;;5.10;2.90;;;;;;;20.19;60.13;98827.59;2062355;28;20034;-65
2021/05/10 02:18:38;;;;;;;3.65;2.30;;;;;;;20.19;60.00;98827.59;2060623;28;20022;-65
2021/05/10 02:19:39;;;;;;;3.57;3.00;;;;;;;20.20;60.07;98834.75;2061569;28;20065;-65
2021/05/10 02:20:40;;;;;;;4.07;2.73;;;;;;;20.19;60.16;98831.19;2058791;28;20035;-65
2021/05/10 02:21:41;;;;;;;4.43;3.03;;;;;;;20.19;59.96;98830.34;2062522;28;20077;-65
2021/05/10 02:23:08;;;;;;;4.00;2.87;;;;;;;20.19;60.15;98824.88;2061586;28;20057;-64
2021/05/10 02:24:08;;;;;;;3.85;2.58;;;;;;;20.17;60.18;98810.53;2062000;28;20097;-65
2021/05/10 02:25:16;;;;;;;3.13;2.70;;;;;;;20.18;60.42;98806.72;2062315;28;20070;-64
2021/05/10 02:26:16;;;;;;;5.47;2.70;;;;;;;20.15;60.16;98805.22;2060268;28;20441;-64
2021/05/10 02:27:17;;;;;;;5.73;3.20;;;;;;;20.16;60.06;98819.75;2058702;28;20145;-65
2021/05/10 02:28:19;;;;;;;3.70;2.73;;;;;;;20.17;60.22;98821.47;2062449;28;20089;-65
2021/05/10 02:29:19;;;;;;;4.32;3.20;;;;;;;20.18;60.23;98823.16;2058588;28;20026;-65
2021/05/10 02:30:22;;;;;;;5.40;2.83;;;;;;;20.17;60.23;98827.78;2061862;28;20038;-65
2021/05/10 02:31:22;;;;;;;4.10;2.60;;;;;;;20.18;60.20;98845.03;2061856;28;20026;-65
2021/05/10 02:32:23;;;;;;;4.70;2.93;;;;;;;20.17;60.22;98837.88;2059760;28;20164;-65
2021/05/10 02:33:32;;;;;;;4.27;3.27;;;;;;;20.17;60.07;98837.88;2061149;28;20168;-64
2021/05/10 02:34:32;;;;;;;4.03;2.63;;;;;;;20.17;60.20;98838.72;2061117;28;20396;-65
2021/05/10 02:35:33;;;;;;;4.87;2.90;;;;;;;20.18;60.10;98839.56;2053215;28;20108;-65
2021/05/10 02:36:33;;;;;;;4.10;3.33;;;;;;;20.17;60.25;98849.66;2049371;28;20528;-64
2021/05/10 02:37:34;;;;;;;2.83;2.23;;;;;;;20.17;60.17;98846.09;2057890;28;20818;-65
2021/05/10 02:38:34;;;;;;;5.43;3.20;;;;;;;20.16;60.09;98841.63;2061756;28;20034;-65
2021/05/10 02:39:35;;;;;;;3.77;2.63;;;;;;;20.17;60.18;98846.09;2055767;28;20144;-64
2021/05/10 02:40:36;;;;;;;2.97;2.63;;;;;;;20.16;60.08;98852.56;2060273;28;20037;-65
2021/05/10 02:41:37;;;;;;;3.53;2.75;;;;;;;20.16;60.25;98852.56;2060662;28;20066;-65
2021/05/10 02:42:37;;;;;;;3.20;2.50;;;;;;;20.15;60.28;98846.25;2061815;28;20859;-64
2021/05/10 02:43:38;;;;;;;3.63;2.90;;;;;;;20.15;60.17;98849.00;2060877;28;20062;-65
2021/05/10 02:45:07;;;;;;;4.83;3.33;;;;;;;20.14;60.17;98844.56;2061039;28;20042;-65
2021/05/10 02:46:07;;;;;;;5.53;3.08;;;;;;;20.13;60.21;98849.16;2058541;28;20438;-65
2021/05/10 02:47:08;;;;;;;3.60;2.90;;;;;;;20.14;60.32;98861.00;2063313;28;20441;-65
2021/05/10 02:48:09;;;;;;;4.13;2.47;;;;;;;20.13;60.24;98865.59;2060543;28;20026;-64
2021/05/10 02:49:09;;;;;;;6.10;3.40;;;;;;;20.13;60.23;98870.22;2059489;28;20505;-64
2021/05/10 02:50:14;;;;;;;4.53;3.00;;;;;;;20.13;60.14;98871.06;2060899;28;20445;-64
2021/05/10 02:51:14;;;;;;;4.35;2.83;;;;;;;20.13;60.17;98873.78;2058393;28;20037;-65
2021/05/10 02:52:14;;;;;;;3.60;2.77;;;;;;;20.15;60.17;98878.25;2057108;28;20033;-64
2021/05/10 02:53:15;;;;;;;3.77;2.73;;;;;;;20.15;60.32;98883.72;2058373;28;20370;-65
2021/05/10 02:54:15;;;;;;;4.53;3.20;;;;;;;20.15;60.17;98889.19;2061626;28;20061;-64
2021/05/10 02:55:17;;;;;;;4.00;2.70;;;;;;;20.14;60.35;98877.41;2062032;28;20026;-65
2021/05/10 02:56:17;;;;;;;4.03;2.90;;;;;;;20.13;60.27;98865.59;2060356;28;20022;-64
2021/05/10 02:57:18;;;;;;;3.73;3.07;;;;;;;20.12;60.26;98861.16;2060577;28;20050;-64
2021/05/10 02:58:18;;;;;;;4.10;2.87;;;;;;;20.13;60.30;98851.91;2061501;28;20022;-64
2021/05/10 02:59:19;;;;;;;3.40;2.97;;;;;;;20.13;60.22;98854.66;2061180;28;20210;-64
2021/05/10 03:00:22;;;;;;;4.27;3.50;;;;;;;20.12;60.13;98863.91;2060638;28;20025;-65
2021/05/10 03:01:23;;;;;;;4.85;2.83;;;;;;;20.12;60.45;98869.38;2060769;28;20038;-65
2021/05/10 03:02:23;;;;;;;3.40;2.53;;;;;;;20.15;60.20;98883.72;2063773;28;20021;-64
2021/05/10 03:03:24;;;;;;;4.60;2.63;;;;;;;20.14;60.35;98893.81;2066683;28;20040;-65
2021/05/10 03:04:24;;;;;;;4.77;2.60;;;;;;;20.13;60.17;98903.88;2062118;28;20600;-64
2021/05/10 03:05:25;;;;;;;4.33;3.07;;;;;;;20.15;60.23;98900.13;2060448;28;20082;-64
2021/05/10 03:06:26;;;;;;;7.53;4.32;;;;;;;20.15;60.11;98897.41;2058861;28;20105;-64
2021/05/10 03:07:26;;;;;;;5.33;3.43;;;;;;;20.14;60.12;98882.88;2061463;28;20045;-64
2021/05/10 03:08:27;;;;;;;4.60;3.10;;;;;;;20.13;60.19;98887.47;2062138;28;20619;-65
2021/05/10 03:09:27;;;;;;;5.03;2.50;;;;;;;20.13;60.18;98887.47;2060708;28;20078;-64
2021/05/10 03:10:28;;;;;;;3.00;2.53;;;;;;;20.12;60.36;98874.84;2061752;28;20038;-65
2021/05/10 03:11:29;;;;;;;3.50;2.67;;;;;;;20.15;60.19;98883.72;2061546;28;20151;-65
2021/05/10 03:12:29;;;;;;;4.10;2.80;;;;;;;20.15;60.15;98886.47;2060493;28;20033;-65
2021/05/10 03:13:30;;;;;;;3.77;2.60;;;;;;;20.13;60.05;98892.94;2061959;28;20064;-64
2021/05/10 03:14:30;;;;;;;8.37;2.70;;;;;;;20.13;60.28;98900.31;2063196;28;20113;-65
2021/05/10 03:15:30;;;;;;;3.60;2.80;;;;;;;20.15;60.20;98905.59;2065127;28;20117;-64
2021/05/10 03:16:31;;;;;;;4.00;2.70;;;;;;;20.15;60.23;98911.09;2068460;28;20038;-65
2021/05/10 03:17:31;;;;;;;3.07;2.77;;;;;;;20.15;60.23;98913.81;2061664;28;20370;-65
2021/05/10 03:18:32;;;;;;;3.37;2.40;;;;;;;20.14;60.19;98918.44;2062017;28;20030;-64
2021/05/10 03:19:32;;;;;;;5.53;2.63;;;;;;;20.15;60.13;98927.50;2058751;28;20026;-64
2021/05/10 03:20:33;;;;;;;3.50;2.60;;;;;;;20.15;60.18;98922.03;2052997;28;20106;-64
2021/05/10 03:21:33;;;;;;;4.50;2.80;;;;;;;20.15;60.11;98919.28;2058764;28;20509;-65
2021/05/10 03:22:34;;;;;;;5.30;3.47;;;;;;;20.15;60.17;98911.09;2063280;28;20073;-64
2021/05/10 03:23:34;;;;;;;4.10;2.57;;;;;;;20.15;60.15;98911.09;2061973;28;20125;-65
2021/05/10 03:24:35;;;;;;;4.47;3.10;;;;;;;20.14;60.15;98921.19;2060062;28;20026;-64
2021/05/10 03:25:35;;;;;;;6.23;2.87;;;;;;;20.15;60.23;98911.09;2057223;28;20713;-64
2021/05/10 03:26:37;;;;;;;3.53;2.50;;;;;;;20.13;60.10;98909.38;2056904;28;20454;-65
2021/05/10 03:27:41;;;;;;;4.03;3.25;;;;;;;20.14;60.13;98910.25;2059165;28;20034;-65
2021/05/10 03:28:42;;;;;;;3.65;2.75;;;;;;;20.12;60.15;98910.41;2054823;28;20035;-64
2021/05/10 03:29:42;;;;;;;5.20;3.40;;;;;;;20.12;60.04;98910.41;2058470;28;20038;-64
2021/05/10 03:30:42;;;;;;;6.80;2.90;;;;;;;20.12;60.04;98907.66;2061904;28;20486;-65
2021/05/10 03:31:43;;;;;;;2.60;2.23;;;;;;;20.12;60.18;98910.41;2060938;28;20034;-64
2021/05/10 03:32:45;;;;;;;3.50;2.90;;;;;;;20.12;60.17;98907.66;2060921;28;20062;-64
2021/05/10 03:33:45;;;;;;;;;;;;;;;20.09;60.24;98924.47;2054441;28;20069;-65
2021/05/10 03:34:45;;;;;;;3.92;3.15;;;;;;;20.09;60.15;98929.94;2058062;28;20360;-64
2021/05/10 03:35:46;;;;;;;4.63;2.80;;;;;;;20.10;60.23;98933.50;2054221;28;20054;-64
2021/05/10 03:36:46;;;;;;;4.30;2.70;;;;;;;20.10;60.16;98942.56;2053511;28;20029;-65
2021/05/10 03:37:47;;;;;;;3.07;2.57;;;;;;;20.11;60.28;98933.34;2046640;28;20038;-64
2021/05/10 03:38:48;;;;;;;3.50;2.73;;;;;;;20.12;60.18;98929.56;2053358;28;20030;-65
2021/05/10 03:39:49;;;;;;;4.03;2.47;;;;;;;20.11;60.25;98916.94;2061121;28;20280;-65
2021/05/10 03:40:49;;;;;;;4.67;3.30;;;;;;;20.11;60.28;98922.41;2061708;28;20591;-64
2021/05/10 03:41:50;;;;;;;3.77;2.63;;;;;;;20.11;60.25;98913.31;2060131;28;20037;-65
2021/05/10 03:42:50;;;;;;;4.33;2.73;;;;;;;20.11;60.13;98916.94;2055259;28;20038;-65
2021/05/10 03:43:51;;;;;;;4.03;2.50;;;;;;;20.11;60.17;98919.66;2055392;28;20884;-65
2021/05/10 03:44:52;;;;;;;4.07;2.83;;;;;;;20.11;60.15;98922.41;2060521;28;20409;-65
2021/05/10 03:45:53;;;;;;;4.85;3.33;;;;;;;20.11;60.06;98922.41;2061855;28;20490;-64
2021/05/10 03:46:53;;;;;;;3.50;2.67;;;;;;;20.11;60.14;98919.66;2063814;28;20409;-65
2021/05/10 03:47:54;;;;;;;3.40;2.67;;;;;;;20.11;60.12;98922.41;2062233;28;20110;-65
2021/05/10 03:48:54;;;;;;;2.87;2.50;;;;;;;20.10;60.14;98909.75;2063404;28;20029;-65
2021/05/10 03:49:55;;;;;;;5.47;2.70;;;;;;;20.12;60.10;98906.84;2062129;28;20087;-65
2021/05/10 03:50:55;;;;;;;4.93;2.70;;;;;;;20.11;60.30;98906.00;2062858;28;20081;-64
2021/05/10 03:51:56;;;;;;;3.67;3.13;;;;;;;20.11;60.21;98910.59;2061199;28;20025;-65
2021/05/10 03:52:56;;;;;;;3.07;2.50;;;;;;;20.11;60.23;98906.00;2067948;28;20529;-65
2021/05/10 03:53:56;;;;;;;3.43;2.57;;;;;;;20.11;60.27;98905.13;2058825;28;20065;-64
2021/05/10 03:54:57;;;;;;;3.53;2.60;;;;;;;20.10;60.37;98898.78;2060605;28;20417;-65
2021/05/10 03:55:57;;;;;;;3.70;2.73;;;;;;;20.10;60.06;98903.44;2063452;28;20034;-64
2021/05/10 03:56:59;;;;;;;4.63;3.20;;;;;;;20.11;60.10;98905.13;2061753;28;20030;-64
2021/05/10 03:57:59;;;;;;;;;;;;;;;20.06;60.43;98924.84;2066994;28;20842;-65
2021/05/10 03:59:00;;;;;;;3.70;2.33;;;;;;;20.07;60.32;98932.00;2062680;28;20347;-64
2021/05/10 04:00:00;;;;;;;3.33;2.60;;;;;;;20.08;60.37;98933.69;2063896;28;20034;-65
2021/05/10 04:01:01;;;;;;;4.77;2.70;;;;;;;20.08;60.28;98930.09;2059350;28;20113;-65
2021/05/10 04:02:02;;;;;;;3.87;2.90;;;;;;;20.09;60.16;98932.66;2060628;28;20141;-64
2021/05/10 04:03:05;;;;;;;4.43;3.15;;;;;;;20.09;60.16;98934.56;2055444;28;20037;-65
2021/05/10 04:09:01;;;;;;;3.95;2.30;;;;;;;20.08;60.20;98919.16;2057186;28;20433;-65
2021/05/10 04:13:47;;;;;;;3.85;2.40;;;;;;;20.07;60.33;98926.53;2055543;28;20852;-65
2021/05/10 04:14:48;;;;;;;3.40;2.33;;;;;;;20.06;60.38;98933.06;2062924;28;20688;-65
2021/05/10 04:15:48;;;;;;;3.37;2.57;;;;;;;20.06;60.28;98930.31;2060515;28;20117;-65
2021/05/10 04:16:49;;;;;;;2.53;2.33;;;;;;;20.07;60.24;98926.53;2063542;28;20030;-65
2021/05/10 04:17:49;;;;;;;3.53;2.50;;;;;;;20.07;60.35;98923.78;2065620;28;20627;-65
2021/05/10 04:18:50;;;;;;;4.60;2.80;;;;;;;20.07;60.09;98921.06;2061930;28;20053;-64
2021/05/10 04:19:50;;;;;;;4.43;3.07;;;;;;;20.07;60.42;98918.31;2063071;28;20042;-64
2021/05/10 04:20:51;;;;;;;3.60;2.47;;;;;;;20.07;60.24;98921.06;2061804;28;20119;-65
2021/05/10 04:21:51;;;;;;;3.30;2.33;;;;;;;20.07;60.23;98923.78;2063255;28;20049;-65
2021/05/10 04:22:52;;;;;;;3.97;2.60;;;;;;;20.07;60.11;98920.22;2061933;28;20076;-65
2021/05/10 04:23:52;;;;;;;4.10;3.17;;;;;;;20.07;60.39;98923.78;2062118;28;20014;-64
2021/05/10 04:24:53;;;;;;;3.90;2.73;;;;;;;20.06;60.32;98930.31;2056281;28;20464;-65
2021/05/10 04:25:54;;;;;;;3.37;2.27;;;;;;;20.08;60.36;98935.59;2058106;28;20030;-65
2021/05/10 04:26:55;;;;;;;4.22;2.40;;;;;;;20.08;60.39;98933.69;2063433;28;20560;-65
2021/05/10 04:27:55;;;;;;;3.87;2.47;;;;;;;20.08;60.26;98933.69;2053517;28;20485;-64
2021/05/10 04:28:56;;;;;;;3.00;2.70;;;;;;;20.07;60.25;98915.59;2054041;28;20038;-65
2021/05/10 04:29:56;;;;;;;4.47;2.93;;;;;;;20.07;60.40;98915.59;2055774;28;20556;-64
2021/05/10 04:30:56;;;;;;;3.90;3.00;;;;;;;20.07;60.23;98915.59;2061051;28;20033;-65
2021/05/10 04:31:57;;;;;;;3.40;2.80;;;;;;;20.06;60.32;98908.44;2063228;28;20611;-65
2021/05/10 04:32:59;;;;;;;4.93;2.60;;;;;;;20.07;60.31;98922.94;2057366;28;20056;-64
2021/05/10 04:33:59;;;;;;;3.85;2.40;;;;;;;20.06;60.43;98923.97;2055827;28;20057;-64
2021/05/10 04:35:00;;;;;;;4.03;3.10;;;;;;;20.06;60.36;98922.09;2062513;28;20057;-64
2021/05/10 04:36:01;;;;;;;2.77;2.33;;;;;;;20.07;60.36;98934.75;2061212;28;20541;-65
2021/05/10 04:37:01;;;;;;;3.65;2.50;;;;;;;20.07;60.24;98937.47;2063190;28;20038;-64
2021/05/10 04:38:08;;;;;;;3.37;2.40;;;;;;;20.08;60.15;98935.59;2058698;28;20030;-64
2021/05/10 04:39:08;;;;;;;3.83;2.67;;;;;;;20.08;60.27;98939.16;2061962;28;20547;-65
2021/05/10 04:40:09;;;;;;;3.80;2.63;;;;;;;20.06;60.25;98924.84;2062489;28;20050;-65
2021/05/10 04:41:10;;;;;;;3.33;2.40;;;;;;;20.07;60.29;98932.00;2060635;28;22045;-65
2021/05/10 04:42:10;;;;;;;4.07;2.80;;;;;;;20.07;60.17;98925.69;2063162;28;20030;-65
2021/05/10 04:43:11;;;;;;;4.07;2.57;;;;;;;20.07;60.25;98925.69;2059359;28;20072;-64
2021/05/10 04:44:11;;;;;;;4.67;2.93;;;;;;;20.06;60.20;98919.38;2062259;28;20034;-64
2021/05/10 04:45:12;;;;;;;3.87;2.77;;;;;;;20.06;60.32;98924.84;2062870;28;20026;-65
2021/05/10 04:46:13;;;;;;;4.10;2.47;;;;;;;20.05;60.38;98925.84;2061856;28;20066;-65
2021/05/10 04:47:13;;;;;;;2.70;2.10;;;;;;;20.06;60.27;98927.59;2063098;28;20041;-64
2021/05/10 04:48:14;;;;;;;3.57;2.60;;;;;;;20.06;60.41;98930.31;2061176;28;20037;-65
2021/05/10 04:49:14;;;;;;;5.47;3.20;;;;;;;20.06;60.32;98935.78;2062958;28;20058;-64
2021/05/10 04:50:15;;;;;;;5.80;2.53;;;;;;;20.06;60.25;98933.06;2062604;28;20752;-64
2021/05/10 04:51:16;;;;;;;4.10;2.27;;;;;;;20.06;60.28;98943.13;2062447;28;20033;-64
2021/05/10 04:52:16;;;;;;;3.23;2.93;;;;;;;20.06;60.36;98946.72;2063104;28;20261;-64
2021/05/10 04:53:17;;;;;;;3.07;2.57;;;;;;;20.06;60.28;98954.94;2057702;28;20027;-64
2021/05/10 04:54:17;;;;;;;3.57;2.43;;;;;;;20.06;60.21;98963.16;2055100;28;20037;-64
2021/05/10 04:55:18;;;;;;;2.87;2.30;;;;;;;20.05;60.39;98955.94;2055444;28;20118;-64
2021/05/10 04:56:18;;;;;;;4.03;2.67;;;;;;;20.05;60.30;98958.69;2059913;28;20037;-64
2021/05/10 04:57:19;;;;;;;3.43;2.57;;;;;;;20.05;60.38;98964.16;2055838;28;20026;-65